| time (UTC) | temp C | wind direction | speed KPH | gust KPH | rain 1hr cm | rain 24hr cm | rain mn cm | humidity % | barometer mb |
| 20260507094516 | 19 | 180 | 0.0 | 3.2 | 0.03 | 1.27 | 1.07 | 97 | 1011.9 |
| 20260507094016 | 19 | 90 | 0.0 | 1.6 | 0.03 | 1.27 | 1.07 | 97 | 1011.8 |
| 20260507093516 | 19 | 90 | 0.0 | 3.2 | 0.03 | 1.27 | 1.07 | 97 | 1011.9 |
| 20260507093016 | 19 | 90 | 0.0 | 3.2 | 0.03 | 1.27 | 1.07 | 97 | 1012.1 |
| 20260507092516 | 19 | 90 | 0.0 | 4.8 | 0.03 | 1.27 | 1.07 | 97 | 1012.2 |
| 20260507092016 | 19 | 158 | 0.0 | 1.6 | 0.00 | 1.24 | 1.04 | 97 | 1012.5 |
| 20260507091516 | 19 | 45 | 0.0 | 3.2 | 0.00 | 1.24 | 1.04 | 97 | 1012.4 |
| 20260507091016 | 19 | 90 | 0.0 | 1.6 | 0.00 | 1.24 | 1.04 | 97 | 1012.7 |
| 20260507090516 | 19 | 135 | 0.0 | 1.6 | 0.00 | 1.24 | 1.04 | 97 | 1013.2 |
| 20260507090016 | 19 | 98 | 0.0 | 0.0 | 0.00 | 1.24 | 1.04 | 96 | 1013.2 |
| 20260507085516 | 19 | 98 | 0.0 | 0.0 | 0.00 | 1.24 | 1.04 | 96 | 1013.1 |
| 20260507085016 | 19 | 98 | 0.0 | 0.0 | 0.00 | 1.24 | 1.04 | 96 | 1013.2 |
| 20260507084516 | 19 | 90 | 0.0 | 1.6 | 0.00 | 1.24 | 1.04 | 96 | 1012.9 |
| 20260507084016 | 19 | 177 | 0.0 | 0.0 | 0.03 | 1.24 | 1.04 | 96 | 1012.8 |
| 20260507083516 | 19 | 177 | 0.0 | 0.0 | 0.03 | 1.24 | 1.04 | 96 | 1012.8 |
| 20260507083016 | 19 | 180 | 0.0 | 1.6 | 0.03 | 1.24 | 1.04 | 96 | 1012.7 |
| 20260507082516 | 19 | 177 | 0.0 | 0.0 | 0.03 | 1.24 | 1.04 | 96 | 1012.2 |
| 20260507082016 | 19 | 158 | 0.0 | 4.8 | 0.03 | 1.24 | 1.04 | 96 | 1012.5 |
| 20260507081516 | 19 | 158 | 0.0 | 4.8 | 0.08 | 1.24 | 1.04 | 96 | 1011.9 |
| 20260507081016 | 19 | 68 | 0.0 | 3.2 | 0.13 | 1.24 | 1.04 | 96 | 1011.6 |
| 20260507080515 | 19 | 68 | 0.0 | 4.8 | 0.15 | 1.24 | 1.04 | 96 | 1011.7 |
| 20260507080016 | 19 | 90 | 0.0 | 3.2 | 0.20 | 1.24 | 1.04 | 96 | 1012.0 |
| 20260507075516 | 19 | 68 | 0.0 | 4.8 | 0.25 | 1.24 | 1.04 | 96 | 1011.9 |
| 20260507075015 | 19 | 113 | 0.0 | 8.0 | 0.25 | 1.24 | 1.04 | 96 | 1012.5 |
| 20260507074516 | 19 | 225 | 1.6 | 4.8 | 0.28 | 1.24 | 1.04 | 96 | 1012.8 |
| 20260507074016 | 19 | 180 | 1.6 | 8.0 | 0.28 | 1.22 | 1.02 | 96 | 1011.8 |
| 20260507073515 | 19 | 180 | 1.6 | 6.4 | 0.30 | 1.22 | 1.02 | 96 | 1011.6 |
| 20260507073015 | 19 | 203 | 0.0 | 4.8 | 0.30 | 1.22 | 1.02 | 96 | 1011.7 |
| 20260507072519 | 19 | 90 | 1.6 | 8.0 | 0.33 | 1.22 | 1.02 | 96 | 1012.1 |
| 20260507072058 | 19 | 203 | 1.6 | 4.8 | 0.36 | 1.22 | 1.02 | 96 | 1014.6 |
| 20260507071519 | 19 | 203 | 1.6 | 3.2 | 0.36 | 1.17 | 0.97 | 96 | 1013.7 |
| 20260507071017 | 19 | 203 | 0.0 | 3.2 | 0.33 | 1.12 | 0.91 | 96 | 1013.3 |
| 20260507070517 | 20 | 203 | 0.0 | 3.2 | 0.36 | 1.09 | 0.89 | 95 | 1013.5 |
| 20260507070040 | 20 | 139 | 0.0 | 0.0 | 0.36 | 1.04 | 0.84 | 96 | 1013.4 |
| 20260507065538 | 20 | 135 | 0.0 | 1.6 | 0.33 | 0.99 | 0.79 | 96 | 1013.4 |
| 20260507065017 | 20 | 68 | 0.0 | 1.6 | 0.38 | 0.99 | 0.79 | 96 | 1013.2 |
| 20260507064517 | 20 | 68 | 0.0 | 1.6 | 0.36 | 0.97 | 0.76 | 96 | 1013.4 |
| 20260507064017 | 20 | 72 | 0.0 | 0.0 | 0.36 | 0.94 | 0.74 | 95 | 1013.4 |
| 20260507063517 | 20 | 90 | 1.6 | 8.0 | 0.36 | 0.91 | 0.71 | 95 | 1012.8 |
| 20260507063018 | 20 | 23 | 0.0 | 3.2 | 0.38 | 0.91 | 0.71 | 95 | 1013.1 |
| 20260507062538 | 20 | 203 | 0.0 | 1.6 | 0.38 | 0.89 | 0.69 | 95 | 1013.6 |
| 20260507062017 | 20 | 272 | 0.0 | 0.0 | 0.36 | 0.86 | 0.66 | 96 | 1013.9 |
| 20260507061517 | 20 | 270 | 0.0 | 1.6 | 0.33 | 0.81 | 0.61 | 96 | 1014.2 |
| 20260507061017 | 20 | 270 | 1.6 | 6.4 | 0.33 | 0.79 | 0.58 | 96 | 1014.4 |
| 20260507060517 | 20 | 248 | 0.0 | 3.2 | 0.30 | 0.74 | 0.53 | 96 | 1014.4 |
| 20260507060017 | 20 | 248 | 0.0 | 1.6 | 0.28 | 0.69 | 0.48 | 95 | 1013.6 |
| 20260507055520 | 20 | 90 | 0.0 | 1.6 | 0.28 | 0.66 | 0.46 | 95 | 1013.8 |
| 20260507055017 | 20 | 90 | 0.0 | 3.2 | 0.25 | 0.61 | 0.41 | 95 | 1013.6 |
| 20260507054519 | 20 | 0 | 0.0 | 1.6 | 0.28 | 0.61 | 0.41 | 95 | 1013.8 |
| 20260507054037 | 20 | 203 | 0.0 | 3.2 | 0.28 | 0.58 | 0.38 | 95 | 1013.9 |
| 20260507053517 | 20 | 225 | 1.6 | 4.8 | 0.25 | 0.56 | 0.36 | 95 | 1014.2 |
| 20260507053017 | 20 | 225 | 1.6 | 3.2 | 0.25 | 0.53 | 0.33 | 95 | 1014.0 |
| 20260507052542 | 20 | 248 | 1.6 | 4.8 | 0.25 | 0.51 | 0.30 | 95 | 1013.5 |
| 20260507052017 | 20 | 180 | 0.0 | 6.4 | 0.25 | 0.51 | 0.30 | 95 | 1013.7 |
| 20260507051620 | 20 | 203 | 1.6 | 6.4 | 0.23 | 0.48 | 0.28 | 95 | 1013.9 |
| 20260507051017 | 20 | 203 | 1.6 | 11.3 | 0.23 | 0.46 | 0.25 | 95 | 1014.3 |
| 20260507050537 | 20 | 203 | 3.2 | 11.3 | 0.20 | 0.43 | 0.23 | 95 | 1014.2 |
| 20260507050017 | 20 | 180 | 1.6 | 3.2 | 0.20 | 0.41 | 0.20 | 95 | 1013.9 |
| 20260507045517 | 20 | 203 | 0.0 | 3.2 | 0.18 | 0.38 | 0.18 | 95 | 1013.7 |
| 20260507045017 | 20 | 203 | 0.0 | 1.6 | 0.15 | 0.36 | 0.15 | 95 | 1013.9 |
| 20260507044517 | 20 | 225 | 0.0 | 4.8 | 0.18 | 0.33 | 0.13 | 95 | 1014.2 |
| 20260507044058 | 20 | 225 | 0.0 | 3.2 | 0.15 | 0.30 | 0.10 | 95 | 1014.2 |
| 20260507043537 | 20 | 248 | 0.0 | 3.2 | 0.18 | 0.30 | 0.10 | 94 | 1014.0 |
| 20260507043017 | 20 | 248 | 0.0 | 1.6 | 0.18 | 0.28 | 0.08 | 94 | 1014.1 |
| 20260507042517 | 20 | 203 | 0.0 | 1.6 | 0.18 | 0.25 | 0.05 | 94 | 1013.9 |
| 20260507042037 | 20 | 203 | 1.6 | 3.2 | 0.20 | 0.25 | 0.05 | 94 | 1013.9 |
| 20260507041517 | 20 | 203 | 1.6 | 4.8 | 0.20 | 0.25 | 0.05 | 94 | 1013.8 |
| 20260507041017 | 20 | 248 | 0.0 | 3.2 | 0.18 | 0.23 | 0.03 | 94 | 1013.8 |
| 20260507040517 | 20 | 203 | 0.0 | 3.2 | 0.20 | 0.23 | 0.03 | 94 | 1013.9 |
| 20260507040016 | 20 | 180 | 0.0 | 3.2 | 0.18 | 0.20 | 0.20 | 94 | 1013.7 |
| 20260507035538 | 21 | 113 | 0.0 | 3.2 | 0.18 | 0.20 | 0.20 | 93 | 1014.0 |
| 20260507035017 | 21 | 203 | 0.0 | 3.2 | 0.20 | 0.20 | 0.20 | 93 | 1014.4 |
| 20260507034517 | 21 | 203 | 0.0 | 3.2 | 0.15 | 0.15 | 0.15 | 93 | 1014.0 |
| 20260507034017 | 21 | 203 | 0.0 | 1.6 | 0.15 | 0.15 | 0.15 | 92 | 1014.5 |
| 20260507033517 | 21 | 270 | 0.0 | 4.8 | 0.13 | 0.13 | 0.13 | 92 | 1014.6 |
| 20260507033017 | 21 | 270 | 1.6 | 6.4 | 0.10 | 0.10 | 0.10 | 92 | 1014.9 |
| 20260507032518 | 21 | 225 | 1.6 | 3.2 | 0.08 | 0.08 | 0.08 | 91 | 1015.0 |
| 20260507032017 | 21 | 225 | 1.6 | 6.4 | 0.05 | 0.05 | 0.05 | 91 | 1015.0 |
| 20260507031537 | 21 | 270 | 3.2 | 11.3 | 0.05 | 0.05 | 0.05 | 90 | 1014.6 |
| 20260507031017 | 21 | 248 | 1.6 | 6.4 | 0.05 | 0.05 | 0.05 | 89 | 1014.5 |
| 20260507030517 | 21 | 293 | 0.0 | 3.2 | 0.03 | 0.03 | 0.03 | 89 | 1014.0 |
| 20260507030038 | 21 | 90 | 0.0 | 3.2 | 0.03 | 0.03 | 0.03 | 88 | 1014.0 |
| 20260507025517 | 22 | 203 | 1.6 | 3.2 | 0.03 | 0.03 | 0.03 | 87 | 1014.3 |
| 20260507025037 | 22 | 225 | 1.6 | 4.8 | 0.00 | 0.00 | 0.00 | 86 | 1014.3 |
| 20260507024517 | 22 | 225 | 1.6 | 3.2 | 0.00 | 0.00 | 0.00 | 85 | 1014.2 |
| 20260507024017 | 22 | 248 | 1.6 | 4.8 | 0.00 | 0.00 | 0.00 | 84 | 1014.2 |
| 20260507023517 | 23 | 5 | 0.0 | 0.0 | 0.00 | 0.00 | 0.00 | 83 | 1014.2 |
| 20260507023017 | 23 | 5 | 0.0 | 0.0 | 0.00 | 0.00 | 0.00 | 83 | 1013.8 |
| 20260507022517 | 23 | 0 | 0.0 | 1.6 | 0.00 | 0.00 | 0.00 | 81 | 1013.9 |
| 20260507022017 | 23 | 0 | 0.0 | 3.2 | 0.00 | 0.00 | 0.00 | 79 | 1013.3 |
| 20260507021538 | 24 | 23 | 0.0 | 1.6 | 0.00 | 0.00 | 0.00 | 76 | 1013.2 |
| 20260507021017 | 24 | 68 | 0.0 | 1.6 | 0.00 | 0.00 | 0.00 | 77 | 1013.1 |
| 20260507020537 | 25 | 268 | 0.0 | 0.0 | 0.00 | 0.00 | 0.00 | 74 | 1013.5 |
| 20260507020017 | 25 | 270 | 0.0 | 1.6 | 0.00 | 0.00 | 0.00 | 72 | 1013.5 |
| 20260507015520 | 25 | 270 | 0.0 | 1.6 | 0.00 | 0.00 | 0.00 | 71 | 1013.7 |
| 20260507015017 | 25 | 225 | 1.6 | 3.2 | 0.00 | 0.00 | 0.00 | 69 | 1013.8 |
| 20260507014519 | 25 | 225 | 1.6 | 4.8 | 0.00 | 0.00 | 0.00 | 69 | 1013.6 |
| 20260507014037 | 25 | 270 | 0.0 | 1.6 | 0.00 | 0.00 | 0.00 | 68 | 1013.0 |
| 20260507013517 | 25 | 270 | 0.0 | 4.8 | 0.00 | 0.00 | 0.00 | 68 | 1013.0 |
| 20260507013017 | 25 | 45 | 0.0 | 1.6 | 0.00 | 0.00 | 0.00 | 68 | 1013.1 |
| 20260507012517 | 25 | 51 | 0.0 | 0.0 | 0.00 | 0.00 | 0.00 | 68 | 1013.0 |
| 20260507012017 | 25 | 51 | 0.0 | 0.0 | 0.00 | 0.00 | 0.00 | 68 | 1013.4 |
| 20260507011517 | 25 | 45 | 0.0 | 1.6 | 0.00 | 0.00 | 0.00 | 67 | 1013.5 |
| 20260507011017 | 26 | 45 | 0.0 | 3.2 | 0.00 | 0.00 | 0.00 | 68 | 1013.6 |
| 20260507010517 | 26 | 321 | 0.0 | 0.0 | 0.00 | 0.00 | 0.00 | 66 | 1013.6 |
| 20260507010037 | 26 | 321 | 0.0 | 0.0 | 0.00 | 0.00 | 0.00 | 66 | 1013.5 |
| 20260507005517 | 26 | 321 | 0.0 | 0.0 | 0.00 | 0.00 | 0.00 | 66 | 1013.3 |
| 20260507005017 | 26 | 321 | 0.0 | 0.0 | 0.00 | 0.00 | 0.00 | 65 | 1013.4 |
| 20260507004537 | 26 | 321 | 0.0 | 0.0 | 0.00 | 0.00 | 0.00 | 65 | 1013.7 |
| 20260507004037 | 26 | 321 | 0.0 | 0.0 | 0.00 | 0.00 | 0.00 | 65 | 1013.7 |
| 20260507003517 | 26 | 321 | 0.0 | 0.0 | 0.00 | 0.00 | 0.00 | 65 | 1013.6 |
| 20260507003017 | 26 | 321 | 0.0 | 0.0 | 0.00 | 0.00 | 0.00 | 65 | 1013.7 |
| 20260507002542 | 26 | 315 | 0.0 | 1.6 | 0.00 | 0.00 | 0.00 | 64 | 1013.7 |
| 20260507002017 | 26 | 315 | 0.0 | 1.6 | 0.00 | 0.00 | 0.00 | 64 | 1013.6 |
| 20260507001517 | 27 | 321 | 0.0 | 0.0 | 0.00 | 0.00 | 0.00 | 64 | 1013.4 |
| 20260507001017 | 27 | 338 | 0.0 | 1.6 | 0.00 | 0.00 | 0.00 | 64 | 1013.3 |
| 20260507000540 | 27 | 270 | 0.0 | 3.2 | 0.00 | 0.00 | 0.00 | 63 | 1013.3 |
| 20260507000017 | 27 | 293 | 0.0 | 1.6 | 0.00 | 0.00 | 0.00 | 64 | 1012.4 |
| 20260506235537 | 27 | 225 | 0.0 | 3.2 | 0.00 | 0.00 | 0.00 | 63 | 1013.2 |
| 20260506235017 | 27 | 248 | 1.6 | 3.2 | 0.00 | 0.00 | 0.00 | 63 | 1013.5 |
| 20260506234517 | 27 | 225 | 1.6 | 3.2 | 0.00 | 0.00 | 0.00 | 63 | 1013.4 |
| 20260506234017 | 27 | 270 | 0.0 | 3.2 | 0.00 | 0.00 | 0.00 | 62 | 1013.2 |
| 20260506233517 | 27 | 225 | 1.6 | 4.8 | 0.00 | 0.00 | 0.00 | 62 | 1012.6 |
| 20260506233017 | 27 | 203 | 1.6 | 3.2 | 0.00 | 0.00 | 0.00 | 62 | 1012.9 |
| 20260506232517 | 27 | 225 | 0.0 | 3.2 | 0.00 | 0.00 | 0.00 | 62 | 1012.3 |
| 20260506232037 | 27 | 225 | 0.0 | 3.2 | 0.00 | 0.00 | 0.00 | 62 | 1012.9 |
| 20260506231517 | 27 | 225 | 0.0 | 1.6 | 0.00 | 0.00 | 0.00 | 62 | 1012.9 |
| 20260506231017 | 27 | 270 | 0.0 | 3.2 | 0.00 | 0.00 | 0.00 | 61 | 1013.4 |
| 20260506230537 | 27 | 270 | 0.0 | 6.4 | 0.00 | 0.00 | 0.00 | 61 | 1013.4 |
| 20260506230019 | 27 | 225 | 1.6 | 4.8 | 0.00 | 0.00 | 0.00 | 61 | 1013.7 |
| 20260506225536 | 28 | 248 | 1.6 | 4.8 | 0.00 | 0.00 | 0.00 | 61 | 1013.6 |
| 20260506225017 | 28 | 248 | 0.0 | 1.6 | 0.00 | 0.00 | 0.00 | 60 | 1013.3 |
| 20260506224517 | 28 | 248 | 0.0 | 1.6 | 0.00 | 0.00 | 0.00 | 61 | 1013.2 |
| 20260506224016 | 28 | 225 | 0.0 | 3.2 | 0.00 | 0.00 | 0.00 | 61 | 1013.4 |
| 20260506223537 | 28 | 225 | 0.0 | 1.6 | 0.00 | 0.00 | 0.00 | 60 | 1013.4 |
| 20260506223016 | 28 | 225 | 0.0 | 3.2 | 0.00 | 0.00 | 0.00 | 60 | 1013.3 |
| 20260506222517 | 28 | 225 | 0.0 | 6.4 | 0.00 | 0.00 | 0.00 | 59 | 1013.2 |
| 20260506222017 | 28 | 225 | 1.6 | 6.4 | 0.00 | 0.00 | 0.00 | 59 | 1013.1 |
| 20260506221516 | 28 | 225 | 0.0 | 3.2 | 0.00 | 0.00 | 0.00 | 60 | 1013.4 |
| 20260506221017 | 28 | 225 | 0.0 | 3.2 | 0.00 | 0.00 | 0.00 | 59 | 1013.2 |
| 20260506220536 | 28 | 203 | 1.6 | 12.9 | 0.00 | 0.00 | 0.00 | 59 | 1013.1 |
| 20260506220057 | 28 | 225 | 1.6 | 6.4 | 0.00 | 0.00 | 0.00 | 58 | 1013.3 |
| 20260506215516 | 28 | 225 | 1.6 | 4.8 | 0.00 | 0.00 | 0.00 | 58 | 1013.3 |
| 20260506215017 | 29 | 203 | 1.6 | 4.8 | 0.00 | 0.00 | 0.00 | 57 | 1013.2 |
| 20260506214516 | 29 | 180 | 0.0 | 1.6 | 0.00 | 0.00 | 0.00 | 57 | 1013.1 |
| 20260506214017 | 29 | 225 | 3.2 | 8.0 | 0.00 | 0.00 | 0.00 | 56 | 1013.1 |
| 20260506213517 | 29 | 225 | 4.8 | 12.9 | 0.00 | 0.00 | 0.00 | 56 | 1013.2 |
| 20260506213016 | 30 | 203 | 3.2 | 8.0 | 0.00 | 0.00 | 0.00 | 55 | 1013.4 |
| 20260506212537 | 30 | 225 | 4.8 | 11.3 | 0.00 | 0.00 | 0.00 | 55 | 1013.3 |
| 20260506212036 | 30 | 203 | 1.6 | 4.8 | 0.00 | 0.00 | 0.00 | 55 | 1013.3 |
| 20260506211516 | 30 | 203 | 1.6 | 6.4 | 0.00 | 0.00 | 0.00 | 55 | 1013.3 |
| 20260506211016 | 30 | 203 | 1.6 | 3.2 | 0.00 | 0.00 | 0.00 | 55 | 1013.5 |
| 20260506210537 | 30 | 203 | 1.6 | 6.4 | 0.00 | 0.00 | 0.00 | 55 | 1013.6 |
| 20260506210037 | 30 | 203 | 3.2 | 9.7 | 0.00 | 0.00 | 0.00 | 56 | 1013.8 |
| 20260506205536 | 30 | 248 | 3.2 | 8.0 | 0.00 | 0.00 | 0.00 | 56 | 1013.9 |
| 20260506205037 | 30 | 248 | 3.2 | 11.3 | 0.00 | 0.00 | 0.00 | 55 | 1013.8 |
| 20260506204516 | 30 | 225 | 3.2 | 11.3 | 0.00 | 0.00 | 0.00 | 55 | 1014.0 |
| 20260506204016 | 30 | 225 | 4.8 | 24.1 | 0.00 | 0.00 | 0.00 | 54 | 1013.9 |
| 20260506203516 | 30 | 225 | 1.6 | 8.0 | 0.00 | 0.00 | 0.00 | 55 | 1014.1 |
| 20260506203036 | 30 | 248 | 1.6 | 4.8 | 0.00 | 0.00 | 0.00 | 55 | 1014.0 |
| 20260506202516 | 30 | 225 | 1.6 | 4.8 | 0.00 | 0.00 | 0.00 | 54 | 1014.1 |
| 20260506202016 | 30 | 203 | 1.6 | 8.0 | 0.00 | 0.00 | 0.00 | 54 | 1014.3 |
| 20260506201516 | 30 | 225 | 4.8 | 16.1 | 0.00 | 0.00 | 0.00 | 53 | 1014.4 |
| 20260506201016 | 30 | 203 | 6.4 | 19.3 | 0.00 | 0.00 | 0.00 | 54 | 1014.4 |
| 20260506200516 | 30 | 158 | 1.6 | 3.2 | 0.00 | 0.00 | 0.00 | 55 | 1014.5 |
| 20260506200016 | 30 | 203 | 4.8 | 19.3 | 0.00 | 0.00 | 0.00 | 56 | 1014.7 |
| 20260506195516 | 29 | 203 | 6.4 | 20.9 | 0.00 | 0.00 | 0.00 | 54 | 1014.7 |
| 20260506195016 | 29 | 225 | 1.6 | 6.4 | 0.00 | 0.00 | 0.00 | 55 | 1014.8 |
| 20260506194521 | 29 | 225 | 3.2 | 8.0 | 0.00 | 0.00 | 0.00 | 54 | 1014.8 |
| 20260506194016 | 29 | 203 | 3.2 | 11.3 | 0.00 | 0.00 | 0.00 | 53 | 1015.0 |
| 20260506193516 | 29 | 203 | 1.6 | 6.4 | 0.00 | 0.00 | 0.00 | 53 | 1015.2 |
| 20260506193016 | 29 | 203 | 0.0 | 3.2 | 0.00 | 0.00 | 0.00 | 53 | 1015.2 |
| 20260506192516 | 29 | 203 | 3.2 | 20.9 | 0.00 | 0.00 | 0.00 | 54 | 1015.1 |
| 20260506192016 | 29 | 225 | 3.2 | 12.9 | 0.00 | 0.00 | 0.00 | 53 | 1015.2 |
| 20260506191517 | 29 | 203 | 3.2 | 6.4 | 0.00 | 0.00 | 0.00 | 53 | 1015.2 |
| 20260506191016 | 29 | 203 | 3.2 | 8.0 | 0.00 | 0.00 | 0.00 | 53 | 1015.3 |
| 20260506190516 | 29 | 203 | 4.8 | 14.5 | 0.00 | 0.00 | 0.00 | 53 | 1015.5 |
| 20260506190016 | 28 | 203 | 4.8 | 9.7 | 0.00 | 0.00 | 0.00 | 52 | 1015.7 |
| 20260506185516 | 28 | 203 | 1.6 | 6.4 | 0.00 | 0.00 | 0.00 | 53 | 1015.6 |
| 20260506185016 | 28 | 203 | 4.8 | 16.1 | 0.00 | 0.00 | 0.00 | 50 | 1015.7 |
| 20260506184516 | 28 | 203 | 3.2 | 8.0 | 0.00 | 0.00 | 0.00 | 51 | 1015.6 |
| 20260506184016 | 28 | 248 | 4.8 | 24.1 | 0.00 | 0.00 | 0.00 | 50 | 1015.5 |
| 20260506183516 | 28 | 203 | 3.2 | 8.0 | 0.00 | 0.00 | 0.00 | 49 | 1015.7 |
| 20260506183016 | 28 | 203 | 3.2 | 14.5 | 0.00 | 0.00 | 0.00 | 48 | 1015.6 |
| 20260506182537 | 28 | 225 | 3.2 | 20.9 | 0.00 | 0.00 | 0.00 | 48 | 1015.5 |
| 20260506182016 | 28 | 225 | 4.8 | 16.1 | 0.00 | 0.00 | 0.00 | 47 | 1015.6 |
| 20260506181536 | 28 | 158 | 1.6 | 3.2 | 0.00 | 0.00 | 0.00 | 47 | 1015.6 |
| 20260506181016 | 28 | 225 | 1.6 | 11.3 | 0.00 | 0.00 | 0.00 | 49 | 1015.6 |
| 20260506180516 | 28 | 225 | 3.2 | 16.1 | 0.00 | 0.00 | 0.00 | 49 | 1015.6 |
| 20260506180016 | 28 | 248 | 6.4 | 19.3 | 0.00 | 0.00 | 0.00 | 48 | 1015.6 |
| 20260506175516 | 28 | 248 | 6.4 | 19.3 | 0.00 | 0.00 | 0.00 | 48 | 1015.7 |
| 20260506175016 | 28 | 225 | 3.2 | 16.1 | 0.00 | 0.00 | 0.00 | 45 | 1015.6 |
| 20260506174516 | 28 | 248 | 3.2 | 9.7 | 0.00 | 0.00 | 0.00 | 54 | 1015.7 |
| 20260506174019 | 27 | 203 | 3.2 | 8.0 | 0.00 | 0.00 | 0.00 | 53 | 1015.8 |
| 20260506173516 | 27 | 203 | 1.6 | 6.4 | 0.00 | 0.00 | 0.00 | 53 | 1015.8 |
| 20260506173016 | 27 | 203 | 4.8 | 20.9 | 0.00 | 0.00 | 0.00 | 54 | 1016.0 |
| 20260506172516 | 27 | 225 | 1.6 | 4.8 | 0.00 | 0.00 | 0.00 | 54 | 1016.0 |
| 20260506172016 | 27 | 225 | 1.6 | 4.8 | 0.00 | 0.00 | 0.00 | 56 | 1016.1 |
| 20260506171516 | 27 | 203 | 1.6 | 6.4 | 0.00 | 0.00 | 0.00 | 56 | 1016.2 |
| 20260506171017 | 27 | 270 | 4.8 | 14.5 | 0.00 | 0.00 | 0.00 | 57 | 1016.2 |
| 20260506170515 | 27 | 225 | 4.8 | 16.1 | 0.00 | 0.00 | 0.00 | 59 | 1016.4 |
| 20260506170016 | 27 | 203 | 4.8 | 16.1 | 0.00 | 0.00 | 0.00 | 59 | 1016.4 |
| 20260506165516 | 26 | 225 | 6.4 | 14.5 | 0.00 | 0.00 | 0.00 | 60 | 1016.6 |
| 20260506165016 | 26 | 225 | 4.8 | 22.5 | 0.00 | 0.00 | 0.00 | 59 | 1016.7 |
| 20260506164516 | 26 | 203 | 3.2 | 6.4 | 0.00 | 0.00 | 0.00 | 59 | 1016.8 |
| 20260506164038 | 26 | 225 | 3.2 | 11.3 | 0.00 | 0.00 | 0.00 | 58 | 1016.9 |
| 20260506163517 | 26 | 225 | 4.8 | 12.9 | 0.00 | 0.00 | 0.00 | 57 | 1017.0 |
| 20260506163017 | 26 | 203 | 4.8 | 16.1 | 0.00 | 0.00 | 0.00 | 57 | 1017.1 |
| 20260506162517 | 26 | 180 | 3.2 | 14.5 | 0.00 | 0.00 | 0.00 | 62 | 1017.2 |
| 20260506162017 | 25 | 158 | 1.6 | 6.4 | 0.00 | 0.00 | 0.00 | 64 | 1017.3 |
| 20260506161517 | 25 | 203 | 0.0 | 6.4 | 0.00 | 0.00 | 0.00 | 63 | 1017.3 |
| 20260506161017 | 25 | 225 | 1.6 | 4.8 | 0.00 | 0.00 | 0.00 | 62 | 1017.4 |
| 20260506160517 | 25 | 225 | 1.6 | 6.4 | 0.00 | 0.00 | 0.00 | 62 | 1017.3 |
| 20260506160038 | 25 | 203 | 4.8 | 16.1 | 0.00 | 0.00 | 0.00 | 61 | 1017.4 |
| 20260506155537 | 26 | 180 | 3.2 | 8.0 | 0.00 | 0.00 | 0.00 | 60 | 1017.3 |
| 20260506155017 | 26 | 225 | 3.2 | 14.5 | 0.00 | 0.00 | 0.00 | 60 | 1017.2 |
| 20260506154517 | 25 | 203 | 3.2 | 8.0 | 0.00 | 0.00 | 0.00 | 62 | 1017.2 |
| 20260506154017 | 25 | 203 | 4.8 | 14.5 | 0.00 | 0.00 | 0.00 | 62 | 1017.1 |
| 20260506153517 | 25 | 248 | 3.2 | 14.5 | 0.00 | 0.00 | 0.00 | 65 | 1017.1 |
| 20260506153017 | 25 | 203 | 4.8 | 11.3 | 0.00 | 0.00 | 0.00 | 67 | 1017.2 |
| 20260506152537 | 25 | 203 | 4.8 | 22.5 | 0.00 | 0.00 | 0.00 | 67 | 1017.4 |
| 20260506152017 | 25 | 203 | 3.2 | 8.0 | 0.00 | 0.00 | 0.00 | 69 | 1017.2 |
| 20260506151517 | 24 | 203 | 1.6 | 4.8 | 0.00 | 0.00 | 0.00 | 69 | 1017.2 |
| 20260506151017 | 24 | 225 | 1.6 | 4.8 | 0.00 | 0.00 | 0.00 | 70 | 1017.3 |
| 20260506150517 | 23 | 203 | 1.6 | 9.7 | 0.00 | 0.00 | 0.00 | 71 | 1017.3 |
| 20260506150017 | 23 | 203 | 3.2 | 9.7 | 0.00 | 0.00 | 0.00 | 73 | 1017.2 |
| 20260506145517 | 23 | 225 | 1.6 | 3.2 | 0.00 | 0.00 | 0.00 | 74 | 1017.1 |
| 20260506145038 | 23 | 225 | 1.6 | 8.0 | 0.00 | 0.00 | 0.00 | 74 | 1017.0 |
| 20260506144517 | 23 | 225 | 0.0 | 3.2 | 0.00 | 0.00 | 0.00 | 74 | 1017.0 |
| 20260506144057 | 23 | 203 | 1.6 | 8.0 | 0.00 | 0.00 | 0.00 | 73 | 1017.1 |
| 20260506143517 | 23 | 203 | 1.6 | 3.2 | 0.00 | 0.00 | 0.00 | 74 | 1017.1 |
| 20260506143017 | 23 | 225 | 3.2 | 8.0 | 0.00 | 0.00 | 0.00 | 75 | 1016.9 |
| 20260506142537 | 23 | 293 | 1.6 | 4.8 | 0.00 | 0.00 | 0.00 | 75 | 1016.9 |
| 20260506142019 | 23 | 203 | 0.0 | 4.8 | 0.00 | 0.00 | 0.00 | 76 | 1016.8 |
| 20260506141517 | 22 | 203 | 0.0 | 3.2 | 0.00 | 0.00 | 0.00 | 75 | 1016.7 |
| 20260506141017 | 22 | 225 | 1.6 | 6.4 | 0.00 | 0.00 | 0.00 | 77 | 1016.7 |
| 20260506140537 | 22 | 225 | 0.0 | 1.6 | 0.00 | 0.00 | 0.00 | 78 | 1016.4 |
| 20260506140017 | 22 | 203 | 1.6 | 4.8 | 0.00 | 0.00 | 0.00 | 78 | 1016.6 |
| 20260506135537 | 22 | 158 | 1.6 | 4.8 | 0.00 | 0.00 | 0.00 | 79 | 1016.5 |
| 20260506135037 | 21 | 225 | 0.0 | 3.2 | 0.00 | 0.00 | 0.00 | 80 | 1016.4 |
| 20260506134519 | 21 | 225 | 0.0 | 3.2 | 0.00 | 0.00 | 0.00 | 80 | 1016.4 |
| 20260506134037 | 21 | 225 | 0.0 | 1.6 | 0.00 | 0.00 | 0.00 | 81 | 1016.4 |
| 20260506133537 | 21 | 223 | 0.0 | 0.0 | 0.00 | 0.00 | 0.00 | 82 | 1016.4 |
| 20260506133017 | 20 | 223 | 0.0 | 0.0 | 0.00 | 0.00 | 0.00 | 82 | 1016.4 |
| 20260506132517 | 20 | 225 | 0.0 | 3.2 | 0.00 | 0.00 | 0.00 | 82 | 1016.5 |
| 20260506132017 | 20 | 248 | 0.0 | 3.2 | 0.00 | 0.00 | 0.00 | 83 | 1016.5 |
| 20260506131537 | 20 | 180 | 0.0 | 1.6 | 0.00 | 0.00 | 0.00 | 83 | 1016.4 |
| 20260506131017 | 20 | 180 | 0.0 | 1.6 | 0.00 | 0.00 | 0.00 | 83 | 1016.4 |
| 20260506130517 | 20 | 180 | 0.0 | 1.6 | 0.00 | 0.00 | 0.00 | 84 | 1016.3 |
| 20260506130017 | 20 | 180 | 0.0 | 1.6 | 0.00 | 0.00 | 0.00 | 84 | 1016.3 |
| 20260506125517 | 19 | 135 | 0.0 | 3.2 | 0.00 | 0.00 | 0.00 | 84 | 1016.3 |
| 20260506125017 | 19 | 135 | 0.0 | 1.6 | 0.00 | 0.00 | 0.00 | 84 | 1016.2 |
| 20260506124517 | 19 | 135 | 0.0 | 1.6 | 0.00 | 0.00 | 0.00 | 85 | 1016.2 |
| 20260506124017 | 19 | 295 | 0.0 | 0.0 | 0.00 | 0.00 | 0.00 | 84 | 1016.2 |
| 20260506123537 | 19 | 295 | 0.0 | 0.0 | 0.00 | 0.00 | 0.00 | 85 | 1016.0 |
| 20260506123017 | 18 | 295 | 0.0 | 0.0 | 0.00 | 0.00 | 0.00 | 85 | 1016.2 |
| 20260506122537 | 18 | 295 | 0.0 | 0.0 | 0.00 | 0.00 | 0.00 | 85 | 1016.2 |
| 20260506122017 | 18 | 295 | 0.0 | 0.0 | 0.00 | 0.00 | 0.00 | 85 | 1016.1 |
| 20260506121517 | 18 | 295 | 0.0 | 0.0 | 0.00 | 0.00 | 0.00 | 85 | 1015.9 |
| 20260506121016 | 18 | 295 | 0.0 | 0.0 | 0.00 | 0.00 | 0.00 | 85 | 1015.9 |
| 20260506120517 | 18 | 295 | 0.0 | 0.0 | 0.00 | 0.00 | 0.00 | 85 | 1015.9 |
| 20260506120017 | 18 | 295 | 0.0 | 0.0 | 0.00 | 0.00 | 0.00 | 85 | 1016.0 |
| 20260506115517 | 18 | 295 | 0.0 | 0.0 | 0.00 | 0.00 | 0.00 | 85 | 1016.0 |
| 20260506115017 | 18 | 295 | 0.0 | 0.0 | 0.00 | 0.00 | 0.00 | 85 | 1015.9 |
| 20260506114537 | 18 | 295 | 0.0 | 0.0 | 0.00 | 0.00 | 0.00 | 85 | 1015.9 |
| 20260506114057 | 18 | 295 | 0.0 | 0.0 | 0.00 | 0.00 | 0.00 | 85 | 1015.6 |
| 20260506113538 | 18 | 295 | 0.0 | 0.0 | 0.00 | 0.00 | 0.00 | 85 | 1015.6 |
| 20260506113017 | 18 | 295 | 0.0 | 0.0 | 0.00 | 0.00 | 0.00 | 85 | 1015.6 |
| 20260506112517 | 18 | 295 | 0.0 | 0.0 | 0.00 | 0.00 | 0.00 | 85 | 1015.5 |
| 20260506112017 | 18 | 295 | 0.0 | 0.0 | 0.00 | 0.00 | 0.00 | 85 | 1015.3 |
| 20260506111557 | 17 | 295 | 0.0 | 0.0 | 0.00 | 0.00 | 0.00 | 85 | 1015.1 |
| 20260506111037 | 17 | 293 | 0.0 | 1.6 | 0.00 | 0.00 | 0.00 | 86 | 1015.1 |
| 20260506110537 | 17 | 68 | 0.0 | 1.6 | 0.00 | 0.00 | 0.00 | 85 | 1015.0 |
| 20260506110017 | 17 | 61 | 0.0 | 0.0 | 0.00 | 0.00 | 0.00 | 84 | 1015.0 |
| 20260506105517 | 17 | 61 | 0.0 | 0.0 | 0.00 | 0.00 | 0.00 | 84 | 1015.1 |
| 20260506105017 | 17 | 61 | 0.0 | 0.0 | 0.00 | 0.00 | 0.00 | 84 | 1015.1 |
| 20260506104516 | 17 | 61 | 0.0 | 0.0 | 0.00 | 0.00 | 0.00 | 84 | 1014.8 |
| 20260506104017 | 17 | 61 | 0.0 | 0.0 | 0.00 | 0.00 | 0.00 | 84 | 1014.9 |
| 20260506103516 | 17 | 61 | 0.0 | 0.0 | 0.00 | 0.00 | 0.00 | 84 | 1014.8 |
| 20260506103037 | 17 | 68 | 0.0 | 1.6 | 0.00 | 0.00 | 0.00 | 84 | 1014.8 |
| 20260506102517 | 17 | 68 | 0.0 | 1.6 | 0.00 | 0.00 | 0.00 | 83 | 1014.7 |
| 20260506102016 | 17 | 68 | 0.0 | 1.6 | 0.00 | 0.00 | 0.00 | 83 | 1014.7 |
| 20260506101517 | 17 | 61 | 0.0 | 0.0 | 0.00 | 0.00 | 0.00 | 82 | 1014.7 |
| 20260506101017 | 17 | 61 | 0.0 | 0.0 | 0.00 | 0.00 | 0.00 | 82 | 1014.7 |
| 20260506100516 | 17 | 68 | 0.0 | 1.6 | 0.00 | 0.00 | 0.00 | 82 | 1014.7 |
| 20260506100016 | 17 | 61 | 0.0 | 0.0 | 0.00 | 0.00 | 0.00 | 82 | 1014.7 |
| 20260506095516 | 17 | 68 | 0.0 | 1.6 | 0.00 | 0.00 | 0.00 | 82 | 1014.6 |
| 20260506095016 | 17 | 61 | 0.0 | 0.0 | 0.00 | 0.00 | 0.00 | 81 | 1014.7 |